Latest Weather Observations for Fort Denison

IDN60801

Issued at 11:35 pm EST Wednesday 16 April 2014 (issued every 30 minutes, with the page automatically refreshed every 10 minutes)

About weather observations | Map of weather stations | Latest weather observations for NSW | Other Formats
Station Details ID: 066022 Name: FORT DENISON Lat: -33.86 Lon: 151.23 Height: 2.0 m
Data from the previous 72 hours. | See also: Recent months for locations in New South Wales
Date/Time
EST
Temp
°C
App
Temp
°C
Dew
Point
Rel
Hum
%
Delta-T
°C
Wind Press
QNH
hPa
Press
MSL
hPa
Rain
since 9 am
mm
Dir
 
Spd
km/h
Gust
km/h
Spd
kts
Gust
kts
16/11:30pm - - - - - W 20 26 11 14 - - -
16/11:00pm - - - - - W 20 24 11 13 - - -
16/10:30pm - - - - - W 19 22 10 12 - - -
16/10:00pm - - - - - W 17 20 9 11 - - -
16/09:30pm - - - - - W 19 22 10 12 - - -
16/09:00pm - - - - - W 15 20 8 11 - - -
16/08:30pm - - - - - WSW 15 20 8 11 - - -
16/08:00pm - - - - - SSW 13 19 7 10 - - -
16/07:30pm - - - - - S 13 19 7 10 - - -
16/07:00pm - - - - - S 13 20 7 11 - - -
16/06:30pm - - - - - S 13 22 7 12 - - -
16/06:00pm - - - - - S 17 24 9 13 - - -
16/05:30pm - - - - - S 17 28 9 15 - - -
16/05:00pm - - - - - S 19 32 10 17 - - -
16/04:30pm - - - - - S 22 32 12 17 - - -
16/04:00pm - - - - - S 22 37 12 20 - - -
16/03:30pm - - - - - S 22 35 12 19 - - -
16/03:00pm - - - - - S 22 33 12 18 - - -
16/02:30pm - - - - - S 20 33 11 18 - - -
16/02:00pm - - - - - SSW 20 35 11 19 - - -
16/01:30pm - - - - - S 22 39 12 21 - - -
16/01:00pm - - - - - S 22 33 12 18 - - -
16/12:30pm - - - - - S 26 41 14 22 - - -
16/12:00pm - - - - - SSW 22 39 12 21 - - -
16/11:30am - - - - - S 22 32 12 17 - - -
16/11:00am - - - - - SSW 24 37 13 20 - - -
16/10:30am - - - - - SSW 20 32 11 17 - - -
16/10:00am - - - - - SSW 20 30 11 16 - - -
16/09:30am - - - - - WSW 15 24 8 13 - - -
16/09:00am - - - - - W 20 24 11 13 - - -
16/08:30am - - - - - W 20 26 11 14 - - -
16/08:00am - - - - - W 19 22 10 12 - - -
16/07:30am - - - - - W 20 24 11 13 - - -
16/07:00am - - - - - W 22 30 12 16 - - -
16/06:30am - - - - - W 24 28 13 15 - - -
16/06:00am - - - - - W 24 30 13 16 - - -
16/05:30am - - - - - W 24 32 13 17 - - -
16/05:00am - - - - - W 24 30 13 16 - - -
16/04:30am - - - - - W 20 26 11 14 - - -
16/04:00am - - - - - W 19 24 10 13 - - -
16/03:30am - - - - - W 15 19 8 10 - - -
16/03:00am - - - - - W 20 28 11 15 - - -
16/02:30am - - - - - W 22 26 12 14 - - -
16/02:00am - - - - - WSW 19 28 10 15 - - -
16/01:30am - - - - - WSW 19 28 10 15 - - -
16/01:00am - - - - - WSW 13 22 7 12 - - -
16/12:30am - - - - - WSW 17 26 9 14 - - -
16/12:00am - - - - - WSW 17 20 9 11 - - -
 
Date/Time
EST
Temp
°C
App
Temp
°C
Dew
Point
Rel
Hum
%
Delta-T
°C
Wind Press
QNH
hPa
Press
MSL
hPa
Rain
since 9 am
mm
Dir
 
Spd
km/h
Gust
km/h
Spd
kts
Gust
kts
15/11:30pm - - - - - SW 17 28 9 15 - - -
15/11:00pm - - - - - SSW 20 32 11 17 - - -
15/10:30pm - - - - - WSW 20 32 11 17 - - -
15/10:00pm - - - - - WSW 13 20 7 11 - - -
15/09:30pm - - - - - SSW 20 28 11 15 - - -
15/09:00pm - - - - - S 19 30 10 16 - - -
15/08:30pm - - - - - S 22 32 12 17 - - -
15/08:00pm - - - - - S 20 30 11 16 - - -
15/07:30pm - - - - - S 13 19 7 10 - - -
15/07:00pm - - - - - SW 19 30 10 16 - - -
15/06:30pm - - - - - SSW 20 32 11 17 - - -
15/06:00pm - - - - - SSW 15 24 8 13 - - -
15/05:30pm - - - - - SSW 13 19 7 10 - - -
15/05:00pm - - - - - SSE 15 24 8 13 - - -
15/04:30pm - - - - - S 11 19 6 10 - - -
15/04:00pm - - - - - SSW 20 28 11 15 - - -
15/03:42pm - - - - - SSE 32 50 17 27 - - -
15/03:30pm - - - - - S 20 35 11 19 - - -
15/03:12pm - - - - - S 28 48 15 26 - - -
15/03:00pm - - - - - S 28 44 15 24 - - -
15/02:30pm - - - - - S 26 43 14 23 - - -
15/02:00pm - - - - - S 20 32 11 17 - - -
15/01:30pm - - - - - S 19 32 10 17 - - -
15/01:00pm - - - - - SSW 19 28 10 15 - - -
15/12:30pm - - - - - SSW 17 28 9 15 - - -
15/12:00pm - - - - - SSW 15 22 8 12 - - -
15/11:30am - - - - - SSW 19 35 10 19 - - -
15/11:00am - - - - - SW 15 22 8 12 - - -
15/10:30am - - - - - SW 11 17 6 9 - - -
15/10:00am - - - - - WSW 13 24 7 13 - - -
15/09:30am - - - - - WSW 15 26 8 14 - - -
15/09:00am - - - - - W 22 26 12 14 - - -
15/08:30am - - - - - W 20 28 11 15 - - -
15/08:00am - - - - - W 24 28 13 15 - - -
15/07:30am - - - - - W 22 28 12 15 - - -
15/07:00am - - - - - W 24 30 13 16 - - -
15/06:30am - - - - - W 24 30 13 16 - - -
15/06:00am - - - - - W 22 26 12 14 - - -
15/05:30am - - - - - W 20 28 11 15 - - -
15/05:00am - - - - - W 20 26 11 14 - - -
15/04:30am - - - - - W 20 24 11 13 - - -
15/04:00am - - - - - W 22 26 12 14 - - -
15/03:30am - - - - - W 24 28 13 15 - - -
15/03:00am - - - - - W 20 22 11 12 - - -
15/02:30am - - - - - W 17 20 9 11 - - -
15/02:00am - - - - - WNW 11 15 6 8 - - -
15/01:30am - - - - - SW 11 15 6 8 - - -
15/01:00am - - - - - W 19 22 10 12 - - -
15/12:30am - - - - - W 15 22 8 12 - - -
15/12:00am - - - - - W 20 24 11 13 - - -
 
Date/Time
EST
Temp
°C
App
Temp
°C
Dew
Point
Rel
Hum
%
Delta-T
°C
Wind Press
QNH
hPa
Press
MSL
hPa
Rain
since 9 am
mm
Dir
 
Spd
km/h
Gust
km/h
Spd
kts
Gust
kts
14/11:30pm - - - - - W 15 20 8 11 - - -
14/11:00pm - - - - - W 17 24 9 13 - - -
14/10:30pm - - - - - W 22 26 12 14 - - -
14/10:00pm - - - - - W 20 26 11 14 - - -
14/09:30pm - - - - - W 19 22 10 12 - - -
14/09:00pm - - - - - SW 7 13 4 7 - - -
14/08:30pm - - - - - WSW 13 17 7 9 - - -
14/08:00pm - - - - - W 15 20 8 11 - - -
14/07:30pm - - - - - SW 13 19 7 10 - - -
14/07:00pm - - - - - SSW 19 26 10 14 - - -
14/06:30pm - - - - - SSW 19 28 10 15 - - -
14/06:00pm - - - - - SSW 15 24 8 13 - - -
14/05:30pm - - - - - SSW 17 26 9 14 - - -
14/05:00pm - - - - - SW 17 28 9 15 - - -
14/04:30pm - - - - - SSW 17 24 9 13 - - -
14/04:00pm - - - - - SSW 20 30 11 16 - - -
14/03:30pm - - - - - SSW 19 30 10 16 - - -
14/03:00pm - - - - - S 15 26 8 14 - - -
14/02:30pm - - - - - SSW 22 37 12 20 - - -
14/02:00pm - - - - - S 20 32 11 17 - - -
14/01:30pm - - - - - S 20 33 11 18 - - -
14/01:00pm - - - - - S 22 35 12 19 - - -
14/12:30pm - - - - - SSW 19 28 10 15 - - -
14/12:00pm - - - - - S 24 37 13 20 - - -
14/11:30am - - - - - SSW 20 32 11 17 - - -
14/11:00am - - - - - SSW 26 37 14 20 - - -
14/10:30am - - - - - SSW 22 35 12 19 - - -
14/10:00am - - - - - SSW 22 35 12 19 - - -
14/09:30am - - - - - SW 15 26 8 14 - - -
14/09:00am - - - - - W 20 24 11 13 - - -
14/08:30am - - - - - W 19 24 10 13 - - -
14/08:00am - - - - - W 20 26 11 14 - - -
14/07:30am - - - - - W 24 30 13 16 - - -
14/07:00am - - - - - W 20 26 11 14 - - -
14/06:30am - - - - - W 19 22 10 12 - - -
14/06:00am - - - - - W 20 24 11 13 - - -
14/05:30am - - - - - W 17 22 9 12 - - -
14/05:00am - - - - - W 19 24 10 13 - - -
14/04:30am - - - - - W 20 24 11 13 - - -
14/04:00am - - - - - W 17 22 9 12 - - -
14/03:30am - - - - - W 19 24 10 13 - - -
14/03:00am - - - - - W 22 39 12 21 - - -
14/02:30am - - - - - W 22 32 12 17 - - -
14/02:00am - - - - - W 22 35 12 19 - - -
14/01:30am - - - - - W 20 35 11 19 - - -
14/01:00am - - - - - W 20 24 11 13 - - -
14/12:30am - - - - - W 20 24 11 13 - - -
14/12:00am - - - - - W 17 26 9 14 - - -

Other Formats:

Comma delimited format used in spreadsheet applications
http://www.bom.gov.au/fwo/IDN60801/IDN60801.94769.axf

JavaScript Object Notation format (JSON) in row-major order
http://www.bom.gov.au/fwo/IDN60801/IDN60801.94769.json